Time;durP1;ratioP1;P1;durP2;ratioP2;P2;SDS_P1;SDS_P2;PMS_P1;PMS_P2;Temp;Humidity;BMP_temperature;BMP_pressure;BME280_temperature;BME280_humidity;BME280_pressure;Samples;Min_cycle;Max_cycle;Signal;HPM_P1;HPM_P2
2022/01/14 00:01:25;;;;;;;32.38;18.25;;;;;;;;;;5022547;28;20037;-72
2022/01/14 00:04:11;;;;;;;33.28;18.42;;;;;;;;;;5021794;28;20491;-70
2022/01/14 00:06:56;;;;;;;29.88;16.88;;;;;;;;;;5031024;28;20079;-70
2022/01/14 00:09:41;;;;;;;30.52;17.00;;;;;;;;;;5010278;28;20037;-79
2022/01/14 00:12:35;;;;;;;36.40;19.45;;;;;;;;;;4991076;28;20034;-73
2022/01/14 00:15:24;;;;;;;28.27;17.42;;;;;;;;;;5022914;28;20416;-70
2022/01/14 00:18:09;;;;;;;24.35;15.40;;;;;;;;;;5033458;28;20500;-70
2022/01/14 00:20:55;;;;;;;28.05;15.35;;;;;;;;;;4994680;28;20461;-70
2022/01/14 00:23:41;;;;;;;29.52;16.90;;;;;;;;;;5009031;28;20352;-72
2022/01/14 00:32:49;;;;;;;30.50;15.10;;;;;;;;;;5006408;28;20057;-68
2022/01/14 00:35:41;;;;;;;27.05;15.82;;;;;;;;;;5031157;28;20095;-66
2022/01/14 00:38:26;;;;;;;32.92;16.25;;;;;;;;;;4996145;28;20076;-65
2022/01/14 00:41:11;;;;;;;24.80;15.57;;;;;;;;;;5008273;28;20524;-65
2022/01/14 00:44:01;;;;;;;28.52;15.75;;;;;;;;;;5014485;28;20439;-64
2022/01/14 00:46:47;;;;;;;30.55;17.65;;;;;;;;;;5027358;28;20562;-72
2022/01/14 00:49:33;;;;;;;32.55;17.95;;;;;;;;;;5016857;28;20030;-65
2022/01/14 00:52:18;;;;;;;23.85;14.68;;;;;;;;;;5020663;28;20032;-67
2022/01/14 00:55:04;;;;;;;33.78;17.30;;;;;;;;;;5025266;28;20077;-67
2022/01/14 01:00:38;;;;;;;24.92;15.27;;;;;;;;;;5028842;28;20496;-65
2022/01/14 01:03:23;;;;;;;23.23;14.05;;;;;;;;;;5034632;28;20036;-74
2022/01/14 01:06:09;;;;;;;23.40;13.25;;;;;;;;;;5008260;28;20033;-70
2022/01/14 01:08:56;;;;;;;26.27;13.73;;;;;;;;;;5036670;28;20044;-70
2022/01/14 01:11:54;;;;;;;23.98;14.82;;;;;;;;;;5001589;28;20477;-71
2022/01/14 01:14:47;;;;;;;24.33;15.68;;;;;;;;;;5031217;28;20082;-71
2022/01/14 01:17:33;;;;;;;25.77;15.63;;;;;;;;;;5003921;28;20550;-70
2022/01/14 01:20:18;;;;;;;28.55;16.05;;;;;;;;;;5027429;28;20041;-72
2022/01/14 01:23:04;;;;;;;30.60;15.52;;;;;;;;;;5040971;28;20029;-73
2022/01/14 01:25:57;;;;;;;29.05;16.45;;;;;;;;;;5043971;28;20063;-72
2022/01/14 01:29:04;;;;;;;30.05;17.05;;;;;;;;;;5031802;28;20040;-71
2022/01/14 01:31:50;;;;;;;29.88;15.88;;;;;;;;;;5019680;28;20084;-73
2022/01/14 01:34:36;;;;;;;28.73;16.75;;;;;;;;;;5022773;28;20068;-72
2022/01/14 01:37:21;;;;;;;28.17;15.98;;;;;;;;;;5032641;28;20039;-71
2022/01/14 01:40:07;;;;;;;27.98;16.65;;;;;;;;;;5009674;28;20492;-74
2022/01/14 01:42:53;;;;;;;28.75;16.95;;;;;;;;;;5006953;28;20076;-75
2022/01/14 01:45:38;;;;;;;31.02;16.52;;;;;;;;;;5003117;28;20116;-75
2022/01/14 01:48:23;;;;;;;30.23;17.80;;;;;;;;;;5030280;28;20040;-73
2022/01/14 01:51:09;;;;;;;27.73;16.63;;;;;;;;;;4998201;28;20061;-76
2022/01/14 01:53:54;;;;;;;28.92;16.55;;;;;;;;;;5028077;28;20609;-74
2022/01/14 01:56:39;;;;;;;28.55;16.38;;;;;;;;;;5018451;28;20064;-74
2022/01/14 01:59:25;;;;;;;30.58;17.80;;;;;;;;;;5033903;28;20456;-72
2022/01/14 02:02:11;;;;;;;30.83;18.52;;;;;;;;;;5020171;28;20112;-72
2022/01/14 02:04:56;;;;;;;33.33;18.80;;;;;;;;;;5031383;28;20119;-73
2022/01/14 02:07:43;;;;;;;31.85;18.95;;;;;;;;;;5018788;28;20065;-73
2022/01/14 02:10:28;;;;;;;23.27;14.70;;;;;;;;;;5031522;28;20546;-73
2022/01/14 02:13:13;;;;;;;29.10;16.83;;;;;;;;;;5038209;28;20037;-72
2022/01/14 02:24:58;;;;;;;31.00;16.83;;;;;;;;;;5026139;28;20057;-74
2022/01/14 02:27:44;;;;;;;30.85;17.33;;;;;;;;;;5024873;28;20044;-71
2022/01/14 02:30:30;;;;;;;29.15;18.10;;;;;;;;;;5027915;28;20037;-70
2022/01/14 02:33:17;;;;;;;31.20;18.38;;;;;;;;;;5029825;28;20042;-73
2022/01/14 02:36:02;;;;;;;34.75;18.92;;;;;;;;;;5021171;28;20021;-64
2022/01/14 02:38:47;;;;;;;34.55;18.98;;;;;;;;;;5019613;28;20030;-70
2022/01/14 02:41:37;;;;;;;27.35;15.90;;;;;;;;;;5018230;28;20033;-71
2022/01/14 02:44:28;;;;;;;34.95;19.80;;;;;;;;;;5027594;28;20064;-71
2022/01/14 02:47:13;;;;;;;31.75;17.85;;;;;;;;;;5011693;28;20044;-70
2022/01/14 02:49:58;;;;;;;31.13;17.25;;;;;;;;;;5007769;28;20532;-71
2022/01/14 02:55:43;;;;;;;29.23;17.20;;;;;;;;;;5029664;28;20592;-71
2022/01/14 02:58:29;;;;;;;25.77;14.32;;;;;;;;;;5028939;28;20110;-72
2022/01/14 03:01:17;;;;;;;30.00;17.05;;;;;;;;;;5016594;28;20480;-71
2022/01/14 03:04:03;;;;;;;29.52;16.38;;;;;;;;;;5029730;28;20044;-72
2022/01/14 03:06:49;;;;;;;27.77;16.15;;;;;;;;;;5020894;28;20266;-73
2022/01/14 03:09:35;;;;;;;29.05;16.52;;;;;;;;;;5016075;28;20022;-72
2022/01/14 03:12:21;;;;;;;27.90;16.80;;;;;;;;;;5013266;28;20041;-70
2022/01/14 03:15:06;;;;;;;30.00;18.95;;;;;;;;;;5009558;28;20481;-69
2022/01/14 03:17:52;;;;;;;27.40;16.25;;;;;;;;;;5034689;28;20116;-70
2022/01/14 03:23:22;;;;;;;26.42;16.27;;;;;;;;;;5019271;28;20036;-71
2022/01/14 03:26:07;;;;;;;25.80;15.93;;;;;;;;;;5019733;28;20882;-72
2022/01/14 03:28:53;;;;;;;32.78;19.27;;;;;;;;;;5031771;28;20033;-73
2022/01/14 03:31:38;;;;;;;24.27;15.50;;;;;;;;;;5031976;28;20097;-67
2022/01/14 03:34:23;;;;;;;28.67;17.13;;;;;;;;;;5019974;28;20033;-75
2022/01/14 03:37:09;;;;;;;27.15;16.65;;;;;;;;;;5035198;28;20086;-74
2022/01/14 03:39:54;;;;;;;27.42;16.98;;;;;;;;;;5043947;28;20033;-74
2022/01/14 03:42:39;;;;;;;27.63;15.68;;;;;;;;;;4997806;28;20493;-73
2022/01/14 03:45:24;;;;;;;30.25;18.67;;;;;;;;;;5034176;28;20048;-75
2022/01/14 03:48:10;;;;;;;32.08;17.65;;;;;;;;;;5039594;28;20030;-74
2022/01/14 03:50:55;;;;;;;29.77;18.67;;;;;;;;;;5024200;28;20036;-74
2022/01/14 03:53:40;;;;;;;31.67;20.15;;;;;;;;;;5021729;28;20036;-77
2022/01/14 03:56:26;;;;;;;27.13;16.38;;;;;;;;;;5005033;28;20017;-76
2022/01/14 03:59:11;;;;;;;26.50;18.10;;;;;;;;;;5026971;28;20033;-78
2022/01/14 04:01:56;;;;;;;30.35;18.77;;;;;;;;;;4979447;28;20034;-76
2022/01/14 04:04:42;;;;;;;33.72;18.65;;;;;;;;;;5033746;28;20018;-77
2022/01/14 04:07:27;;;;;;;26.15;16.75;;;;;;;;;;5036721;28;20033;-72
2022/01/14 04:10:13;;;;;;;28.77;17.50;;;;;;;;;;5032210;28;20222;-77
2022/01/14 04:13:02;;;;;;;32.05;19.20;;;;;;;;;;5017448;28;20086;-77
2022/01/14 04:15:48;;;;;;;;;;;;;;;;;;5022645;28;20073;-76
2022/01/14 04:18:33;;;;;;;31.33;19.38;;;;;;;;;;5035969;28;20385;-76
2022/01/14 04:21:19;;;;;;;38.65;19.92;;;;;;;;;;5015845;28;20025;-76
2022/01/14 04:24:04;;;;;;;30.95;18.88;;;;;;;;;;5037415;28;20115;-75
2022/01/14 04:26:49;;;;;;;28.85;18.33;;;;;;;;;;5018407;28;20041;-64
2022/01/14 04:29:35;;;;;;;32.45;17.75;;;;;;;;;;5037423;28;20036;-65
2022/01/14 04:32:20;;;;;;;32.47;18.88;;;;;;;;;;5019649;28;20069;-64
2022/01/14 04:35:05;;;;;;;27.73;16.08;;;;;;;;;;5016809;28;20052;-64
2022/01/14 04:37:51;;;;;;;32.65;16.88;;;;;;;;;;5031999;28;20037;-68
2022/01/14 04:40:36;;;;;;;29.10;17.90;;;;;;;;;;5022404;28;20540;-66
2022/01/14 04:43:22;;;;;;;32.25;18.30;;;;;;;;;;5003214;28;20042;-66
2022/01/14 04:48:53;;;;;;;26.20;15.57;;;;;;;;;;4993442;28;20046;-73
2022/01/14 04:51:38;;;;;;;33.83;19.27;;;;;;;;;;5002828;28;20025;-74
2022/01/14 04:54:24;;;;;;;30.25;16.88;;;;;;;;;;5034148;28;20029;-73
2022/01/14 04:57:10;;;;;;;25.63;16.73;;;;;;;;;;5029409;28;20033;-75
2022/01/14 04:59:55;;;;;;;27.20;16.92;;;;;;;;;;5024209;28;20025;-73
2022/01/14 05:02:40;;;;;;;27.77;17.95;;;;;;;;;;5013279;28;20432;-76
2022/01/14 05:05:29;;;;;;;28.38;18.05;;;;;;;;;;5019111;28;20043;-67
2022/01/14 05:08:25;;;;;;;28.83;18.50;;;;;;;;;;5042342;28;20099;-67
2022/01/14 05:14:04;;;;;;;28.10;16.80;;;;;;;;;;5015253;28;20021;-68
2022/01/14 05:16:49;;;;;;;28.08;16.98;;;;;;;;;;5020090;28;20035;-66
2022/01/14 05:19:35;;;;;;;30.77;18.27;;;;;;;;;;5014128;28;20120;-66
2022/01/14 05:22:21;;;;;;;33.33;19.23;;;;;;;;;;5025581;28;20083;-76
2022/01/14 05:25:07;;;;;;;27.63;17.65;;;;;;;;;;5011761;28;20111;-65
2022/01/14 05:27:52;;;;;;;27.90;17.20;;;;;;;;;;5029178;28;20021;-65
2022/01/14 05:30:37;;;;;;;28.95;17.92;;;;;;;;;;5017332;28;20436;-64
2022/01/14 05:33:23;;;;;;;38.53;20.75;;;;;;;;;;5002057;28;20029;-64
2022/01/14 05:36:08;;;;;;;33.60;19.50;;;;;;;;;;5026907;28;20038;-68
2022/01/14 05:38:53;;;;;;;33.22;19.92;;;;;;;;;;5000949;28;20030;-66
2022/01/14 05:41:39;;;;;;;29.48;19.17;;;;;;;;;;5027298;28;20492;-72
2022/01/14 05:44:24;;;;;;;32.55;19.67;;;;;;;;;;5014747;28;20103;-65
2022/01/14 05:47:09;;;;;;;31.33;18.58;;;;;;;;;;5038275;28;20033;-66
2022/01/14 05:49:54;;;;;;;27.20;17.55;;;;;;;;;;5016112;28;20529;-68
2022/01/14 05:52:40;;;;;;;33.42;18.40;;;;;;;;;;5013311;28;20037;-65
2022/01/14 05:55:25;;;;;;;31.88;18.15;;;;;;;;;;5031154;28;20172;-67
2022/01/14 05:58:10;;;;;;;25.58;15.48;;;;;;;;;;5017241;28;20073;-67
2022/01/14 06:00:56;;;;;;;27.75;17.85;;;;;;;;;;5000592;28;20033;-74
2022/01/14 06:03:41;;;;;;;28.20;17.55;;;;;;;;;;5011309;28;20127;-75
2022/01/14 06:06:27;;;;;;;29.15;18.48;;;;;;;;;;5023050;28;20028;-73
2022/01/14 06:09:12;;;;;;;31.30;17.55;;;;;;;;;;5041647;28;20494;-72
2022/01/14 06:11:57;;;;;;;29.92;17.40;;;;;;;;;;5025359;28;20032;-73
2022/01/14 06:14:43;;;;;;;28.83;17.42;;;;;;;;;;5033068;28;20037;-73
2022/01/14 06:17:28;;;;;;;28.25;16.35;;;;;;;;;;5012246;28;20481;-65
2022/01/14 06:20:13;;;;;;;32.55;18.13;;;;;;;;;;5039983;28;20122;-73
2022/01/14 06:22:59;;;;;;;26.52;16.60;;;;;;;;;;5007496;28;20028;-74
2022/01/14 06:25:44;;;;;;;33.03;18.23;;;;;;;;;;5038105;28;20039;-74
2022/01/14 06:28:30;;;;;;;27.55;17.15;;;;;;;;;;4993979;28;20485;-74
2022/01/14 06:31:15;;;;;;;24.52;16.63;;;;;;;;;;4999677;28;20041;-74
2022/01/14 06:34:00;;;;;;;33.15;17.98;;;;;;;;;;5039858;28;20079;-78
2022/01/14 06:36:46;;;;;;;31.50;17.92;;;;;;;;;;5012627;28;20115;-66
2022/01/14 06:39:31;;;;;;;28.52;16.45;;;;;;;;;;5014968;28;20613;-67
2022/01/14 06:42:16;;;;;;;24.35;16.02;;;;;;;;;;5005780;28;20033;-66
2022/01/14 06:45:02;;;;;;;31.23;17.52;;;;;;;;;;5039056;28;20030;-66
2022/01/14 06:47:48;;;;;;;25.98;16.20;;;;;;;;;;5026521;28;20029;-67
2022/01/14 06:50:33;;;;;;;28.20;17.15;;;;;;;;;;5020242;28;20030;-66
2022/01/14 06:53:18;;;;;;;28.95;17.00;;;;;;;;;;5029601;28;20033;-66
2022/01/14 06:56:04;;;;;;;26.55;16.38;;;;;;;;;;5020153;28;20500;-72
2022/01/14 06:58:49;;;;;;;26.58;16.10;;;;;;;;;;4998887;28;20026;-73
2022/01/14 07:01:34;;;;;;;25.75;15.35;;;;;;;;;;5022464;28;20032;-74
2022/01/14 07:04:19;;;;;;;26.42;17.15;;;;;;;;;;5015239;28;20569;-74
2022/01/14 07:07:05;;;;;;;33.40;19.08;;;;;;;;;;5017581;28;20045;-72
2022/01/14 07:09:56;;;;;;;26.48;15.15;;;;;;;;;;5022087;28;20041;-74
2022/01/14 07:12:43;;;;;;;28.20;17.20;;;;;;;;;;5019349;28;20083;-70
2022/01/14 07:15:28;;;;;;;33.15;17.67;;;;;;;;;;5004540;28;20481;-69
2022/01/14 07:18:15;;;;;;;26.92;16.35;;;;;;;;;;4990679;28;20075;-73
2022/01/14 07:21:01;;;;;;;27.23;17.33;;;;;;;;;;5017942;28;20032;-73
2022/01/14 07:23:46;;;;;;;29.13;16.27;;;;;;;;;;5016251;28;20029;-74
2022/01/14 07:26:32;;;;;;;27.45;17.13;;;;;;;;;;5007796;28;20441;-72
2022/01/14 07:29:17;;;;;;;25.92;14.98;;;;;;;;;;5022811;28;20415;-70
2022/01/14 07:32:03;;;;;;;26.35;14.75;;;;;;;;;;5017723;28;20737;-67
2022/01/14 07:34:48;;;;;;;25.73;15.55;;;;;;;;;;5033254;28;20056;-65
2022/01/14 07:37:33;;;;;;;26.02;15.63;;;;;;;;;;5026697;28;20022;-70
2022/01/14 07:40:19;;;;;;;26.88;16.88;;;;;;;;;;5000047;28;20360;-66
2022/01/14 07:43:04;;;;;;;27.23;16.77;;;;;;;;;;5030103;28;20033;-66
2022/01/14 07:45:49;;;;;;;28.48;16.17;;;;;;;;;;5030295;28;20032;-67
2022/01/14 07:48:34;;;;;;;24.63;14.95;;;;;;;;;;5013762;28;20079;-69
2022/01/14 07:51:20;;;;;;;28.85;14.90;;;;;;;;;;5015355;28;20080;-73
2022/01/14 07:54:05;;;;;;;24.55;15.45;;;;;;;;;;5007672;28;20444;-73
2022/01/14 07:56:52;;;;;;;23.40;14.60;;;;;;;;;;5023571;28;20025;-76
2022/01/14 07:59:38;;;;;;;24.10;14.18;;;;;;;;;;5005836;28;20064;-75
2022/01/14 08:02:25;;;;;;;22.77;13.65;;;;;;;;;;5025994;28;20049;-72
2022/01/14 08:05:11;;;;;;;30.40;15.43;;;;;;;;;;5031923;28;20033;-75
2022/01/14 08:07:58;;;;;;;23.38;14.38;;;;;;;;;;5040625;28;20116;-67
2022/01/14 08:10:43;;;;;;;24.25;14.10;;;;;;;;;;5020783;28;20477;-70
2022/01/14 08:13:28;;;;;;;24.90;14.55;;;;;;;;;;5000321;28;20037;-72
2022/01/14 08:16:14;;;;;;;22.15;14.10;;;;;;;;;;5019701;28;20032;-71
2022/01/14 08:18:59;;;;;;;22.65;15.50;;;;;;;;;;5007414;28;20025;-71
2022/01/14 08:21:44;;;;;;;25.50;15.63;;;;;;;;;;5018789;28;20083;-69
2022/01/14 08:24:30;;;;;;;23.23;14.52;;;;;;;;;;5014345;28;20732;-71
2022/01/14 08:27:15;;;;;;;28.55;16.48;;;;;;;;;;5010984;28;21668;-70
2022/01/14 08:30:02;;;;;;;27.92;17.17;;;;;;;;;;5002874;28;20133;-71
2022/01/14 08:32:47;;;;;;;25.08;16.23;;;;;;;;;;5028226;28;20025;-73
2022/01/14 08:35:32;;;;;;;25.58;16.13;;;;;;;;;;5016485;28;20025;-72
2022/01/14 08:38:18;;;;;;;29.02;15.68;;;;;;;;;;5015936;28;20478;-71
2022/01/14 08:41:03;;;;;;;24.67;15.10;;;;;;;;;;5000913;28;20025;-76
2022/01/14 08:43:49;;;;;;;25.15;14.48;;;;;;;;;;5017489;28;20029;-66
2022/01/14 08:46:34;;;;;;;26.08;16.00;;;;;;;;;;5013806;28;20037;-71
2022/01/14 08:49:20;;;;;;;28.27;16.60;;;;;;;;;;4988624;28;20028;-71
2022/01/14 08:52:06;;;;;;;26.52;16.70;;;;;;;;;;5001406;28;20037;-71
2022/01/14 08:54:51;;;;;;;27.70;16.92;;;;;;;;;;5024230;28;20045;-73
2022/01/14 08:57:36;;;;;;;29.23;17.23;;;;;;;;;;5008351;28;20099;-74
2022/01/14 09:00:22;;;;;;;31.90;18.90;;;;;;;;;;5024672;28;20116;-70
2022/01/14 09:03:08;;;;;;;29.33;17.42;;;;;;;;;;4986072;28;20120;-63
2022/01/14 09:05:53;;;;;;;26.60;15.75;;;;;;;;;;5039165;28;20210;-70
2022/01/14 09:08:38;;;;;;;30.25;17.77;;;;;;;;;;5026491;28;20031;-69
2022/01/14 09:11:24;;;;;;;28.70;17.60;;;;;;;;;;5030227;28;20029;-70
2022/01/14 09:14:09;;;;;;;28.63;18.20;;;;;;;;;;5038512;28;20365;-72
2022/01/14 09:16:56;;;;;;;27.08;17.63;;;;;;;;;;5033865;28;20029;-76
2022/01/14 09:19:41;;;;;;;27.83;17.00;;;;;;;;;;5033029;28;20210;-69
2022/01/14 09:22:28;;;;;;;28.02;16.70;;;;;;;;;;5009182;28;20362;-65
2022/01/14 09:25:15;;;;;;;28.35;17.83;;;;;;;;;;5024270;28;20057;-69
2022/01/14 09:28:00;;;;;;;29.13;17.63;;;;;;;;;;5026765;28;20037;-71
2022/01/14 09:30:45;;;;;;;29.95;17.17;;;;;;;;;;5011901;28;20452;-70
2022/01/14 09:33:30;;;;;;;27.48;17.23;;;;;;;;;;5003101;28;20039;-67
2022/01/14 09:36:16;;;;;;;28.67;18.80;;;;;;;;;;5013607;28;20037;-70
2022/01/14 09:39:02;;;;;;;31.83;17.95;;;;;;;;;;5008713;28;20118;-72
2022/01/14 09:41:48;;;;;;;28.30;18.15;;;;;;;;;;5024010;28;20029;-71
2022/01/14 09:44:33;;;;;;;28.30;17.33;;;;;;;;;;5004193;28;20382;-70
2022/01/14 09:47:19;;;;;;;27.90;16.75;;;;;;;;;;5026575;28;20033;-71
2022/01/14 09:50:05;;;;;;;30.05;17.58;;;;;;;;;;5015220;28;20034;-70
2022/01/14 09:52:51;;;;;;;28.40;16.90;;;;;;;;;;5027795;28;20039;-70
2022/01/14 09:55:36;;;;;;;27.55;17.52;;;;;;;;;;5008270;28;20114;-67
2022/01/14 09:58:26;;;;;;;28.50;17.35;;;;;;;;;;5014625;28;20040;-76
2022/01/14 10:01:13;;;;;;;;;;;;;;;;;;5019586;28;20029;-72
2022/01/14 10:04:02;;;;;;;26.50;15.70;;;;;;;;;;5024168;28;20406;-70
2022/01/14 10:06:49;;;;;;;24.42;16.02;;;;;;;;;;5020381;28;21367;-73
2022/01/14 10:09:37;;;;;;;24.35;16.30;;;;;;;;;;5020527;28;20033;-70
2022/01/14 10:12:22;;;;;;;31.02;16.77;;;;;;;;;;5033650;28;20017;-70
2022/01/14 10:15:09;;;;;;;26.70;16.70;;;;;;;;;;5034549;28;20034;-68
2022/01/14 10:17:59;;;;;;;29.88;17.67;;;;;;;;;;5028241;28;20026;-68
2022/01/14 10:20:44;;;;;;;27.00;18.50;;;;;;;;;;5021303;28;20028;-73
2022/01/14 10:23:39;;;;;;;24.63;17.25;;;;;;;;;;5047861;28;20040;-77
2022/01/14 10:26:26;;;;;;;26.58;15.85;;;;;;;;;;5031911;28;20041;-72
2022/01/14 10:29:12;;;;;;;25.60;16.33;;;;;;;;;;5024223;28;20029;-72
2022/01/14 10:31:58;;;;;;;29.38;17.27;;;;;;;;;;5015286;28;20167;-73
2022/01/14 10:34:43;;;;;;;25.52;16.60;;;;;;;;;;5027295;28;20594;-72
2022/01/14 10:37:31;;;;;;;25.58;16.92;;;;;;;;;;5022585;28;20029;-73
2022/01/14 10:40:18;;;;;;;23.48;15.35;;;;;;;;;;5009720;28;20373;-74
2022/01/14 10:43:05;;;;;;;24.25;15.43;;;;;;;;;;5031696;28;20025;-75
2022/01/14 10:45:50;;;;;;;22.35;14.90;;;;;;;;;;5036658;28;20029;-73
2022/01/14 10:48:41;;;;;;;24.77;16.02;;;;;;;;;;5035286;28;20109;-72
2022/01/14 10:51:26;;;;;;;26.92;15.20;;;;;;;;;;5017384;28;20504;-72
2022/01/14 10:54:11;;;;;;;23.90;15.40;;;;;;;;;;5019961;28;20056;-73
2022/01/14 10:57:10;;;;;;;24.92;15.50;;;;;;;;;;5002872;28;20063;-71
2022/01/14 10:59:57;;;;;;;21.30;13.50;;;;;;;;;;5028673;28;20045;-70
2022/01/14 11:02:45;;;;;;;20.33;13.50;;;;;;;;;;5020333;28;20051;-74
2022/01/14 11:05:31;;;;;;;25.67;16.10;;;;;;;;;;5028360;28;20243;-71
2022/01/14 11:08:16;;;;;;;22.45;14.93;;;;;;;;;;5016106;28;20581;-71
2022/01/14 11:11:01;;;;;;;23.70;14.27;;;;;;;;;;5030659;28;20052;-75
2022/01/14 11:13:47;;;;;;;22.13;14.68;;;;;;;;;;5005432;28;20362;-68
2022/01/14 11:16:32;;;;;;;21.23;18.30;;;;;;;;;;5002665;28;20120;-68
2022/01/14 11:19:20;;;;;;;26.15;17.83;;;;;;;;;;5029793;28;20417;-67
2022/01/14 11:25:12;;;;;;;21.95;18.50;;;;;;;;;;5014120;28;20037;-62
2022/01/14 11:27:59;;;;;;;20.98;18.77;;;;;;;;;;5030687;28;20560;-64
2022/01/14 11:30:45;;;;;;;21.85;19.55;;;;;;;;;;5011931;28;20101;-62
2022/01/14 11:33:37;;;;;;;22.27;18.40;;;;;;;;;;5035683;28;20033;-63
2022/01/14 11:36:23;;;;;;;18.75;13.18;;;;;;;;;;4981261;28;20038;-67
2022/01/14 11:39:22;;;;;;;25.15;20.80;;;;;;;;;;4998569;28;20051;-64
2022/01/14 11:42:09;;;;;;;23.55;17.00;;;;;;;;;;5015335;28;20029;-64
2022/01/14 11:44:56;;;;;;;23.58;15.63;;;;;;;;;;5015700;28;20045;-63
2022/01/14 11:47:46;;;;;;;25.15;15.55;;;;;;;;;;5012453;28;20029;-62
2022/01/14 11:50:31;;;;;;;23.02;15.43;;;;;;;;;;5016779;28;20042;-64
2022/01/14 11:53:31;;;;;;;25.02;16.00;;;;;;;;;;5029008;28;20600;-62
2022/01/14 11:56:32;;;;;;;24.63;17.98;;;;;;;;;;5001843;28;20060;-63
2022/01/14 11:59:17;;;;;;;23.70;16.27;;;;;;;;;;5013221;28;20128;-69
2022/01/14 12:02:22;;;;;;;1999.90;999.90;;;;;;;;;;5011343;28;20488;-68
2022/01/14 12:05:09;;;;;;;1999.90;999.90;;;;;;;;;;5002782;28;20037;-73
2022/01/14 12:08:10;;;;;;;1999.90;999.90;;;;;;;;;;5027744;28;20385;-65
2022/01/14 12:10:56;;;;;;;1999.90;999.90;;;;;;;;;;5016745;28;20033;-74
2022/01/14 12:14:02;;;;;;;1999.90;999.90;;;;;;;;;;5032822;28;20447;-76
2022/01/14 12:17:00;;;;;;;35.50;29.67;;;;;;;;;;4990914;28;20117;-76
2022/01/14 12:19:46;;;;;;;24.83;17.52;;;;;;;;;;5011430;28;20033;-76
2022/01/14 12:22:31;;;;;;;20.33;14.80;;;;;;;;;;4992587;28;20030;-78
2022/01/14 12:25:16;;;;;;;23.48;15.68;;;;;;;;;;5029489;28;20083;-71
2022/01/14 12:28:15;;;;;;;24.73;16.73;;;;;;;;;;5004997;28;20033;-66
2022/01/14 12:31:02;;;;;;;23.30;15.80;;;;;;;;;;5011418;28;20527;-66
2022/01/14 12:33:50;;;;;;;24.38;15.75;;;;;;;;;;5010096;28;20041;-71
2022/01/14 12:36:35;;;;;;;24.00;14.63;;;;;;;;;;5021721;28;20029;-72
2022/01/14 12:39:21;;;;;;;21.90;15.90;;;;;;;;;;5007280;28;20088;-72
2022/01/14 12:42:06;;;;;;;28.05;15.45;;;;;;;;;;5017062;28;20483;-68
2022/01/14 12:44:53;;;;;;;23.17;15.18;;;;;;;;;;5014491;28;20071;-73
2022/01/14 12:47:41;;;;;;;23.23;14.18;;;;;;;;;;5005133;28;20029;-70
2022/01/14 12:50:29;;;;;;;21.27;14.80;;;;;;;;;;5021556;28;20168;-70
2022/01/14 12:53:18;;;;;;;24.80;15.38;;;;;;;;;;5028007;28;20489;-68
2022/01/14 12:56:14;;;;;;;21.07;14.13;;;;;;;;;;5013837;28;20063;-70
2022/01/14 12:58:59;;;;;;;22.55;15.20;;;;;;;;;;5013956;28;20211;-72
2022/01/14 13:01:49;;;;;;;27.25;16.00;;;;;;;;;;5009105;28;20029;-69
2022/01/14 13:04:34;;;;;;;24.50;16.63;;;;;;;;;;5018140;28;20166;-71
2022/01/14 13:07:24;;;;;;;23.80;16.23;;;;;;;;;;5005834;28;20068;-74
2022/01/14 13:10:10;;;;;;;25.85;17.23;;;;;;;;;;5022567;28;20035;-73
2022/01/14 13:12:56;;;;;;;27.55;17.38;;;;;;;;;;4988659;28;20037;-70
2022/01/14 13:15:41;;;;;;;26.70;17.23;;;;;;;;;;5020698;28;20112;-71
2022/01/14 13:18:30;;;;;;;28.38;18.05;;;;;;;;;;5024771;28;20150;-71
2022/01/14 13:21:15;;;;;;;26.60;17.20;;;;;;;;;;5021511;28;20055;-72
2022/01/14 13:24:01;;;;;;;31.13;17.63;;;;;;;;;;5025363;28;20268;-73
2022/01/14 13:27:01;;;;;;;31.90;19.70;;;;;;;;;;5014412;28;20464;-70
2022/01/14 13:29:54;;;;;;;27.48;18.23;;;;;;;;;;5020410;28;20079;-71
2022/01/14 13:32:40;;;;;;;26.33;19.52;;;;;;;;;;5013184;28;20033;-72
2022/01/14 13:35:27;;;;;;;28.98;19.27;;;;;;;;;;5018381;28;20214;-72
2022/01/14 13:38:17;;;;;;;31.13;19.65;;;;;;;;;;4981364;28;20037;-79
2022/01/14 13:41:02;;;;;;;31.45;19.45;;;;;;;;;;5015771;28;20030;-71
2022/01/14 13:43:49;;;;;;;30.77;18.30;;;;;;;;;;5011902;28;20029;-71
2022/01/14 13:46:44;;;;;;;28.55;18.77;;;;;;;;;;5014571;28;20075;-70
2022/01/14 13:49:29;;;;;;;28.05;19.08;;;;;;;;;;4999014;28;20132;-69
2022/01/14 13:52:15;;;;;;;27.25;17.73;;;;;;;;;;4995822;28;20041;-70
2022/01/14 13:55:00;;;;;;;28.42;19.70;;;;;;;;;;4989028;28;20034;-70
2022/01/14 13:57:46;;;;;;;31.10;19.02;;;;;;;;;;5013735;28;20461;-66
2022/01/14 14:00:32;;;;;;;29.45;19.15;;;;;;;;;;5010652;28;20033;-65
2022/01/14 14:03:25;;;;;;;30.33;20.40;;;;;;;;;;5013889;28;20036;-70
2022/01/14 14:06:16;;;;;;;28.95;19.55;;;;;;;;;;5012533;28;20167;-67
2022/01/14 14:17:40;;;;;;;33.20;20.38;;;;;;;;;;5021575;28;20361;-72
2022/01/14 14:20:25;;;;;;;29.33;18.80;;;;;;;;;;5024070;28;20025;-70
2022/01/14 14:23:12;;;;;;;27.65;17.17;;;;;;;;;;4988084;28;20061;-70
2022/01/14 14:26:00;;;;;;;36.38;19.88;;;;;;;;;;5008580;28;20116;-72
2022/01/14 14:28:45;;;;;;;29.40;19.70;;;;;;;;;;5014726;28;20051;-72
2022/01/14 14:31:31;;;;;;;27.98;19.10;;;;;;;;;;5031731;28;20072;-71
2022/01/14 14:34:16;;;;;;;32.40;21.20;;;;;;;;;;5031003;28;20025;-71
2022/01/14 14:37:02;;;;;;;28.13;18.85;;;;;;;;;;4997422;28;20072;-67
2022/01/14 14:39:47;;;;;;;26.77;19.15;;;;;;;;;;5027094;28;20032;-66
2022/01/14 14:42:33;;;;;;;27.63;19.20;;;;;;;;;;5024766;28;20091;-69
2022/01/14 14:45:18;;;;;;;30.70;19.20;;;;;;;;;;5019602;28;20120;-67
2022/01/14 14:48:04;;;;;;;32.65;21.13;;;;;;;;;;5027665;28;20042;-63
2022/01/14 14:50:52;;;;;;;32.22;19.77;;;;;;;;;;5015724;28;20021;-72
2022/01/14 14:53:37;;;;;;;32.55;20.98;;;;;;;;;;5018790;28;20380;-79
2022/01/14 14:56:22;;;;;;;29.77;21.15;;;;;;;;;;5029985;28;20041;-68
2022/01/14 14:59:08;;;;;;;31.92;19.88;;;;;;;;;;5023856;28;20682;-70
2022/01/14 15:01:53;;;;;;;34.75;20.25;;;;;;;;;;5016096;28;20029;-70
2022/01/14 15:04:39;;;;;;;33.33;20.65;;;;;;;;;;5003358;28;20032;-71
2022/01/14 15:07:26;;;;;;;35.72;20.70;;;;;;;;;;5000433;28;20603;-70
2022/01/14 15:10:14;;;;;;;32.40;18.88;;;;;;;;;;4989158;28;20046;-70
2022/01/14 15:13:00;;;;;;;35.10;20.98;;;;;;;;;;5005392;28;20136;-74
2022/01/14 15:18:30;;;;;;;29.67;19.15;;;;;;;;;;5006764;28;20069;-72
2022/01/14 15:21:15;;;;;;;35.13;19.92;;;;;;;;;;5028524;28;20064;-78
2022/01/14 15:24:01;;;;;;;33.65;21.65;;;;;;;;;;5024457;28;20051;-75
2022/01/14 15:26:46;;;;;;;33.95;20.55;;;;;;;;;;5019163;28;20040;-75
2022/01/14 15:29:31;;;;;;;33.78;19.92;;;;;;;;;;5015250;28;20076;-71
2022/01/14 15:32:18;;;;;;;29.90;19.35;;;;;;;;;;5021192;28;20467;-68
2022/01/14 15:35:04;;;;;;;32.72;20.75;;;;;;;;;;5007118;28;20033;-70
2022/01/14 15:37:49;;;;;;;29.92;20.23;;;;;;;;;;5014773;28;20074;-72
2022/01/14 15:40:37;;;;;;;32.17;20.27;;;;;;;;;;5023499;28;20022;-71
2022/01/14 15:43:22;;;;;;;32.25;21.02;;;;;;;;;;5043081;28;20033;-72
2022/01/14 15:46:08;;;;;;;37.60;20.33;;;;;;;;;;5016626;28;20064;-72
2022/01/14 15:48:54;;;;;;;33.08;21.13;;;;;;;;;;5019599;28;20057;-74
2022/01/14 15:51:40;;;;;;;32.05;19.13;;;;;;;;;;5025895;28;20024;-76
2022/01/14 15:54:25;;;;;;;30.92;20.33;;;;;;;;;;5016059;28;20040;-76
2022/01/14 15:57:10;;;;;;;33.63;20.58;;;;;;;;;;5001801;28;20036;-75
2022/01/14 15:59:55;;;;;;;31.23;19.65;;;;;;;;;;5031957;28;20044;-75
2022/01/14 16:02:41;;;;;;;31.52;20.38;;;;;;;;;;5022778;28;20090;-77
2022/01/14 16:05:26;;;;;;;30.65;20.48;;;;;;;;;;5016226;28;20031;-75
2022/01/14 16:08:12;;;;;;;33.92;21.15;;;;;;;;;;5013925;28;20110;-69
2022/01/14 16:10:58;;;;;;;31.38;20.42;;;;;;;;;;5017234;28;20039;-70
2022/01/14 16:13:43;;;;;;;36.53;22.80;;;;;;;;;;5009136;28;20042;-70
2022/01/14 16:16:29;;;;;;;33.28;20.73;;;;;;;;;;5022030;28;20033;-69
2022/01/14 16:19:14;;;;;;;32.50;20.73;;;;;;;;;;5036820;28;20035;-73
2022/01/14 16:22:00;;;;;;;38.50;20.13;;;;;;;;;;5031689;28;20467;-70
2022/01/14 16:24:45;;;;;;;32.47;20.48;;;;;;;;;;5014042;28;20334;-71
2022/01/14 16:27:31;;;;;;;28.20;20.92;;;;;;;;;;5002729;28;20119;-67
2022/01/14 16:30:16;;;;;;;31.83;21.83;;;;;;;;;;5018150;28;20037;-65
2022/01/14 16:33:02;;;;;;;32.70;20.27;;;;;;;;;;5026945;28;20048;-65
2022/01/14 16:35:47;;;;;;;37.42;22.67;;;;;;;;;;5021514;28;20025;-65
2022/01/14 16:38:33;;;;;;;28.52;19.85;;;;;;;;;;5020240;28;20061;-64
2022/01/14 16:41:19;;;;;;;31.77;20.88;;;;;;;;;;5008487;28;20104;-63
2022/01/14 16:44:04;;;;;;;31.63;20.15;;;;;;;;;;5013009;28;20043;-69
2022/01/14 16:46:49;;;;;;;34.58;21.20;;;;;;;;;;4994633;28;20032;-71
2022/01/14 16:49:35;;;;;;;32.60;21.58;;;;;;;;;;5017555;28;20182;-71
2022/01/14 16:52:21;;;;;;;34.75;20.88;;;;;;;;;;5017711;28;20110;-71